Time;durP1;ratioP1;P1;durP2;ratioP2;P2;SDS_P1;SDS_P2;PMS_P1;PMS_P2;Temp;Humidity;BMP_temperature;BMP_pressure;BME280_temperature;BME280_humidity;BME280_pressure;Samples;Min_cycle;Max_cycle;Signal;HPM_P1;HPM_P2
2024/02/23 00:01:11;;;;;;;2.40;1.00;;;7.10;98.00;;;;;;5051602;28;20459;-66
2024/02/23 00:03:39;;;;;;;1.20;1.00;;;7.20;98.00;;;;;;5051778;28;20456;-67
2024/02/23 00:06:06;;;;;;;1.17;1.00;;;7.20;98.00;;;;;;5033996;28;20961;-67
2024/02/23 00:08:34;;;;;;;2.27;1.00;;;7.30;98.00;;;;;;5037272;28;20583;-65
2024/02/23 00:11:01;;;;;;;1.20;1.00;;;7.20;98.00;;;;;;5055841;28;20509;-66
2024/02/23 00:13:28;;;;;;;1.33;1.00;;;7.20;98.00;;;;;;5055797;28;20929;-65
2024/02/23 00:15:57;;;;;;;1.10;1.00;;;7.10;98.00;;;;;;5055849;28;20453;-66
2024/02/23 00:18:25;;;;;;;1.60;1.10;;;7.10;98.00;;;;;;5037941;28;20952;-67
2024/02/23 00:20:52;;;;;;;1.20;1.00;;;7.00;98.00;;;;;;5055136;28;20459;-65
2024/02/23 00:23:20;;;;;;;1.80;1.00;;;7.10;98.00;;;;;;5055344;28;20515;-65
2024/02/23 00:25:49;;;;;;;1.20;1.00;;;7.00;98.00;;;;;;5055130;28;20462;-66
2024/02/23 00:28:16;;;;;;;1.20;1.10;;;7.00;98.00;;;;;;5055000;28;21080;-66
2024/02/23 00:30:43;;;;;;;1.20;1.00;;;7.00;98.00;;;;;;5054874;28;20467;-65
2024/02/23 00:33:11;;;;;;;1.80;1.20;;;6.90;98.00;;;;;;5055135;28;20958;-66
2024/02/23 00:35:38;;;;;;;1.10;1.00;;;6.90;98.00;;;;;;5055072;28;20450;-66
2024/02/23 00:38:07;;;;;;;1.20;1.10;;;6.80;98.00;;;;;;5054979;28;20487;-67
2024/02/23 00:40:36;;;;;;;1.10;0.90;;;6.80;98.00;;;;;;5054776;28;20443;-67
2024/02/23 00:43:06;;;;;;;1.10;1.00;;;6.80;98.00;;;;;;5054858;28;20769;-66
2024/02/23 00:45:34;;;;;;;1.20;1.00;;;6.80;98.00;;;;;;5054592;28;20513;-66
2024/02/23 00:48:01;;;;;;;4.80;1.00;;;6.90;98.00;;;;;;5054948;28;20608;-67
2024/02/23 00:50:28;;;;;;;1.10;1.10;;;6.90;98.00;;;;;;5054770;28;20902;-65
2024/02/23 00:52:55;;;;;;;1.80;1.10;;;6.80;98.00;;;;;;5054575;28;20448;-65
2024/02/23 00:55:25;;;;;;;1.30;1.00;;;6.90;98.00;;;;;;5054530;28;20444;-67
2024/02/23 00:57:52;;;;;;;1.30;1.10;;;6.90;98.00;;;;;;5054704;28;20448;-65
2024/02/23 01:00:21;;;;;;;1.20;1.00;;;6.90;98.00;;;;;;5054525;28;20464;-66
2024/02/23 01:02:48;;;;;;;2.60;1.20;;;6.90;98.00;;;;;;5036664;28;20581;-66
2024/02/23 01:05:15;;;;;;;1.80;1.10;;;7.00;98.00;;;;;;5054193;28;20497;-66
2024/02/23 01:07:42;;;;;;;1.10;0.90;;;6.90;98.00;;;;;;5054098;28;20483;-66
2024/02/23 01:10:10;;;;;;;1.30;1.07;;;7.00;98.00;;;;;;5054149;28;20460;-65
2024/02/23 01:12:37;;;;;;;1.23;1.03;;;6.90;98.00;;;;;;5054143;28;20464;-66
2024/02/23 01:15:05;;;;;;;1.10;1.00;;;7.00;98.00;;;;;;5036477;28;20448;-66
2024/02/23 01:17:34;;;;;;;1.30;1.00;;;7.00;98.00;;;;;;5053955;28;20478;-66
2024/02/23 01:20:01;;;;;;;1.40;1.00;;;7.00;98.00;;;;;;5054062;28;20945;-66
2024/02/23 01:22:28;;;;;;;1.20;1.00;;;7.00;98.00;;;;;;5054199;28;20453;-66
2024/02/23 01:24:55;;;;;;;1.20;1.00;;;6.90;98.00;;;;;;5054273;28;20908;-67
2024/02/23 01:27:22;;;;;;;2.47;1.10;;;6.90;98.00;;;;;;5054039;28;20451;-65
2024/02/23 01:29:49;;;;;;;2.27;1.00;;;6.90;98.00;;;;;;5054043;28;20967;-66
2024/02/23 01:32:16;;;;;;;1.40;1.00;;;7.00;98.00;;;;;;5054176;28;20456;-66
2024/02/23 01:34:45;;;;;;;1.30;1.03;;;7.10;98.00;;;;;;5054098;28;20525;-65
2024/02/23 01:37:12;;;;;;;1.40;1.00;;;7.00;98.00;;;;;;5054022;28;20455;-65
2024/02/23 01:39:39;;;;;;;4.07;1.20;;;7.00;98.00;;;;;;5054059;28;20945;-65
2024/02/23 01:42:06;;;;;;;1.10;1.00;;;7.00;98.00;;;;;;5036415;28;20456;-65
2024/02/23 01:44:33;;;;;;;1.10;1.00;;;7.00;98.00;;;;;;5053962;28;20449;-65
2024/02/23 01:47:00;;;;;;;1.50;1.10;;;7.00;98.00;;;;;;5036209;28;20450;-65
2024/02/23 01:49:31;;;;;;;2.57;1.10;;;7.10;98.00;;;;;;5053613;28;20568;-66
2024/02/23 01:52:01;;;;;;;1.20;1.00;;;7.10;98.00;;;;;;5053834;28;20466;-67
2024/02/23 01:54:29;;;;;;;1.70;1.10;;;7.10;98.00;;;;;;5053840;28;20456;-65
2024/02/23 01:56:57;;;;;;;1.50;1.10;;;7.20;98.00;;;;;;5053936;28;20481;-65
2024/02/23 01:59:29;;;;;;;1.20;1.10;;;7.30;98.00;;;;;;5053602;28;20484;-66
2024/02/23 02:01:57;;;;;;;1.10;1.00;;;7.40;98.00;;;;;;5053328;28;20464;-65
2024/02/23 02:04:24;;;;;;;1.10;1.00;;;7.40;98.00;;;;;;5053533;28;20455;-65
2024/02/23 02:06:51;;;;;;;1.20;1.00;;;7.30;98.00;;;;;;5053118;28;20455;-66
2024/02/23 02:09:20;;;;;;;1.30;1.10;;;7.30;98.00;;;;;;5053080;28;20491;-65
2024/02/23 02:11:48;;;;;;;1.20;1.10;;;7.20;98.00;;;;;;5035507;28;20449;-66
2024/02/23 02:14:15;;;;;;;1.40;1.00;;;7.20;98.00;;;;;;5053049;28;20801;-65
2024/02/23 02:16:43;;;;;;;1.40;1.00;;;7.30;98.00;;;;;;5052985;28;20504;-65
2024/02/23 02:19:11;;;;;;;1.17;1.00;;;7.20;98.00;;;;;;5052832;28;20784;-65
2024/02/23 02:21:38;;;;;;;1.50;1.20;;;7.10;98.00;;;;;;5053140;28;20451;-66
2024/02/23 02:24:06;;;;;;;3.40;1.23;;;7.10;98.00;;;;;;5052825;28;20459;-66
2024/02/23 02:26:35;;;;;;;1.50;1.07;;;7.00;98.00;;;;;;5052814;28;20451;-67
2024/02/23 02:29:03;;;;;;;1.10;0.90;;;7.00;98.00;;;;;;5017850;28;21011;-65
2024/02/23 02:31:36;;;;;;;3.57;1.30;;;7.10;98.00;;;;;;5052368;28;20449;-65
2024/02/23 02:34:04;;;;;;;1.17;1.10;;;7.00;98.00;;;;;;5052677;28;20459;-65
2024/02/23 02:36:33;;;;;;;3.17;1.20;;;7.00;98.00;;;;;;5052638;28;20464;-66
2024/02/23 02:39:00;;;;;;;1.30;1.13;;;6.90;98.00;;;;;;5052984;28;20839;-65
2024/02/23 02:41:31;;;;;;;3.80;1.10;;;6.80;98.00;;;;;;5052868;28;20470;-65
2024/02/23 02:43:59;;;;;;;1.40;1.00;;;6.70;98.00;;;;;;5052876;28;20499;-65
2024/02/23 02:46:26;;;;;;;1.30;1.10;;;6.60;98.00;;;;;;5034865;28;20486;-65
2024/02/23 02:48:53;;;;;;;1.93;1.10;;;6.50;98.00;;;;;;5052475;28;20864;-65
2024/02/23 02:51:21;;;;;;;1.60;1.10;;;6.50;98.00;;;;;;5052431;28;20516;-65
2024/02/23 02:53:48;;;;;;;1.93;1.00;;;6.60;98.00;;;;;;5052407;28;20848;-66
2024/02/23 02:56:15;;;;;;;1.20;1.07;;;6.50;98.00;;;;;;5034419;28;20968;-66
2024/02/23 02:58:42;;;;;;;1.20;1.00;;;6.40;98.00;;;;;;5052681;28;20455;-65
2024/02/23 03:01:11;;;;;;;2.57;1.33;;;6.30;98.00;;;;;;5034543;28;20457;-65
2024/02/23 03:03:38;;;;;;;4.80;1.70;;;6.30;98.00;;;;;;5052279;28;20828;-65
2024/02/23 03:06:05;;;;;;;1.20;1.00;;;6.30;98.00;;;;;;5051997;28;20453;-66
2024/02/23 03:08:33;;;;;;;1.20;1.10;;;6.30;98.00;;;;;;5052241;28;20526;-65
2024/02/23 03:11:00;;;;;;;1.20;1.17;;;6.30;98.00;;;;;;5052032;28;20819;-65
2024/02/23 03:13:28;;;;;;;1.40;1.10;;;6.30;98.00;;;;;;5052369;28;20442;-65
2024/02/23 03:15:55;;;;;;;1.43;1.10;;;6.30;98.00;;;;;;5034646;28;21056;-65
2024/02/23 03:18:24;;;;;;;3.30;1.10;;;6.30;98.00;;;;;;5051800;28;20453;-67
2024/02/23 03:20:52;;;;;;;1.47;1.10;;;6.30;98.00;;;;;;5052237;28;20777;-66
2024/02/23 03:23:19;;;;;;;1.13;1.03;;;6.40;98.00;;;;;;5051979;28;20468;-65
2024/02/23 03:25:47;;;;;;;2.90;1.43;;;6.40;98.00;;;;;;5052102;28;20478;-67
2024/02/23 03:28:14;;;;;;;5.53;1.20;;;6.40;98.00;;;;;;5051961;28;20455;-66
2024/02/23 03:30:41;;;;;;;2.80;1.27;;;6.40;98.00;;;;;;5052027;28;20466;-66
2024/02/23 03:33:08;;;;;;;2.03;1.30;;;6.40;98.00;;;;;;5051942;28;20480;-66
2024/02/23 03:35:36;;;;;;;1.70;1.10;;;6.30;98.00;;;;;;5034291;28;20463;-66
2024/02/23 03:38:03;;;;;;;1.17;1.03;;;6.30;98.00;;;;;;5052049;28;20814;-65
2024/02/23 03:40:30;;;;;;;1.30;1.20;;;6.30;98.00;;;;;;5051880;28;20454;-65
2024/02/23 03:42:57;;;;;;;3.33;1.17;;;6.40;98.00;;;;;;5034288;28;20868;-66
2024/02/23 03:45:25;;;;;;;1.40;1.10;;;6.30;98.00;;;;;;5051684;28;20521;-65
2024/02/23 03:47:52;;;;;;;1.40;1.20;;;6.30;98.00;;;;;;5034236;28;20461;-65
2024/02/23 03:50:19;;;;;;;2.73;1.10;;;6.20;98.00;;;;;;5051459;28;20554;-67
2024/02/23 03:52:47;;;;;;;1.10;1.00;;;6.20;98.00;;;;;;5051548;28;20820;-66
2024/02/23 03:55:14;;;;;;;6.13;1.10;;;6.20;98.00;;;;;;5051326;28;20461;-65
2024/02/23 03:57:41;;;;;;;2.43;1.20;;;6.30;98.00;;;;;;5051660;28;20461;-66
2024/02/23 04:00:10;;;;;;;4.70;1.40;;;6.30;98.00;;;;;;5051408;28;20519;-65
2024/02/23 04:02:37;;;;;;;1.60;1.20;;;6.30;98.00;;;;;;5051372;28;20458;-65
2024/02/23 04:05:05;;;;;;;1.43;1.10;;;6.20;98.00;;;;;;5051388;28;20520;-65
2024/02/23 04:07:35;;;;;;;1.30;1.00;;;6.30;98.00;;;;;;5051054;28;20462;-66
2024/02/23 04:10:04;;;;;;;1.40;1.20;;;6.30;98.00;;;;;;5051431;28;20484;-65
2024/02/23 04:12:31;;;;;;;1.53;1.30;;;6.30;98.00;;;;;;5051456;28;20450;-66
2024/02/23 04:14:58;;;;;;;4.43;1.10;;;6.30;98.00;;;;;;5051240;28;20452;-65
2024/02/23 04:17:26;;;;;;;1.50;1.10;;;6.30;98.00;;;;;;5051291;28;20832;-65
2024/02/23 04:19:54;;;;;;;1.20;1.10;;;6.30;98.00;;;;;;5051433;28;20451;-65
2024/02/23 04:22:21;;;;;;;1.30;1.10;;;6.30;98.00;;;;;;5051250;28;20446;-67
2024/02/23 04:24:48;;;;;;;1.40;1.10;;;6.30;98.00;;;;;;5051150;28;20456;-66
2024/02/23 04:27:16;;;;;;;1.57;1.07;;;6.40;98.00;;;;;;5051152;28;20515;-67
2024/02/23 04:29:44;;;;;;;1.10;1.00;;;6.50;98.00;;;;;;5051369;28;20491;-65
2024/02/23 04:32:12;;;;;;;2.63;1.20;;;6.60;98.00;;;;;;5033386;28;20772;-64
2024/02/23 04:34:41;;;;;;;3.93;1.10;;;6.70;98.00;;;;;;5051202;28;20465;-65
2024/02/23 04:37:08;;;;;;;1.20;1.10;;;6.70;98.00;;;;;;5033295;28;20864;-65
2024/02/23 04:39:38;;;;;;;1.20;1.00;;;6.70;98.00;;;;;;5051243;28;20458;-66
2024/02/23 04:42:05;;;;;;;1.80;1.10;;;6.70;98.00;;;;;;5051176;28;20541;-65
2024/02/23 04:44:34;;;;;;;4.73;1.10;;;6.70;98.00;;;;;;5051315;28;20449;-65
2024/02/23 04:47:01;;;;;;;1.57;1.10;;;6.80;98.00;;;;;;5033130;28;20979;-67
2024/02/23 04:49:28;;;;;;;1.50;1.00;;;6.60;98.00;;;;;;5050873;28;20859;-65
2024/02/23 04:51:55;;;;;;;2.33;1.20;;;6.50;98.00;;;;;;5050639;28;20463;-65
2024/02/23 04:54:23;;;;;;;1.20;1.00;;;6.30;98.00;;;;;;5053350;28;20457;-65
2024/02/23 04:56:52;;;;;;;1.30;1.00;;;6.20;98.00;;;;;;5054057;28;20449;-66
2024/02/23 04:59:19;;;;;;;1.20;1.10;;;6.20;98.00;;;;;;5054059;28;20457;-65
2024/02/23 05:01:48;;;;;;;1.40;1.10;;;6.20;98.00;;;;;;5054222;28;20449;-66
2024/02/23 05:04:15;;;;;;;5.00;1.23;;;6.20;98.00;;;;;;5054545;28;20501;-66
2024/02/23 05:06:43;;;;;;;2.03;1.23;;;6.20;98.00;;;;;;5054917;28;21126;-65
2024/02/23 05:09:10;;;;;;;2.23;1.20;;;6.20;98.00;;;;;;5269613;22;20491;-74
2024/02/23 05:11:37;;;;;;;2.23;1.20;;;6.30;98.00;;;;;;5053642;28;20449;-73
2024/02/23 05:14:05;;;;;;;1.90;1.10;;;6.30;98.00;;;;;;5053694;28;20458;-73
2024/02/23 05:16:32;;;;;;;1.97;1.20;;;6.30;98.00;;;;;;5053680;28;20456;-74
2024/02/23 05:19:01;;;;;;;2.20;1.20;;;6.40;98.00;;;;;;5054183;28;20819;-74
2024/02/23 05:21:28;;;;;;;5.10;1.30;;;6.60;98.00;;;;;;5054669;28;20453;-74
2024/02/23 05:23:55;;;;;;;1.70;1.30;;;6.60;98.00;;;;;;5054169;28;20823;-73
2024/02/23 05:26:22;;;;;;;1.57;1.10;;;6.50;98.00;;;;;;5054507;28;20509;-71
2024/02/23 05:28:49;;;;;;;1.57;1.10;;;6.50;98.00;;;;;;5053848;28;20457;-71
2024/02/23 05:31:17;;;;;;;3.33;1.10;;;6.60;98.00;;;;;;5052907;28;20454;-71
2024/02/23 05:33:44;;;;;;;5.00;1.83;;;6.60;98.00;;;;;;5053182;28;20448;-71
2024/02/23 05:36:12;;;;;;;1.93;1.30;;;6.60;98.00;;;;;;5052533;28;20454;-72
2024/02/23 05:38:39;;;;;;;1.43;1.10;;;6.60;98.00;;;;;;5053059;28;20462;-71
2024/02/23 05:41:06;;;;;;;3.10;1.30;;;6.60;98.00;;;;;;5052718;28;20814;-71
2024/02/23 05:43:35;;;;;;;6.03;1.20;;;6.60;98.00;;;;;;5052781;28;20459;-71
2024/02/23 05:46:02;;;;;;;1.50;1.17;;;6.60;98.00;;;;;;5052955;28;20454;-71
2024/02/23 05:48:29;;;;;;;1.50;1.30;;;6.60;98.00;;;;;;5052551;28;20448;-71
2024/02/23 05:50:56;;;;;;;1.40;1.20;;;6.60;98.00;;;;;;5052659;28;20494;-71
2024/02/23 05:53:24;;;;;;;1.63;1.30;;;6.60;98.00;;;;;;5052241;28;20820;-71
2024/02/23 05:55:52;;;;;;;1.40;1.20;;;6.50;98.00;;;;;;5034714;28;20962;-71
2024/02/23 05:58:20;;;;;;;3.40;1.60;;;6.40;98.00;;;;;;5053231;28;20455;-71
2024/02/23 06:00:48;;;;;;;2.00;1.40;;;6.30;98.00;;;;;;5035507;28;20862;-71
2024/02/23 06:03:15;;;;;;;1.60;1.30;;;6.30;98.00;;;;;;5035302;28;20461;-71
2024/02/23 06:05:42;;;;;;;1.80;1.40;;;6.30;98.00;;;;;;5052953;28;20448;-71
2024/02/23 06:08:09;;;;;;;1.50;1.20;;;6.30;98.00;;;;;;5052761;28;20461;-71
2024/02/23 06:10:39;;;;;;;3.53;1.37;;;6.30;98.00;;;;;;5052979;28;20485;-71
2024/02/23 06:13:08;;;;;;;2.33;1.40;;;6.30;98.00;;;;;;5053106;28;20457;-71
2024/02/23 06:15:35;;;;;;;1.27;1.20;;;6.30;98.00;;;;;;5052813;28;20484;-71
2024/02/23 06:18:02;;;;;;;3.83;1.30;;;6.30;98.00;;;;;;5052916;28;20457;-71
2024/02/23 06:20:29;;;;;;;1.93;1.30;;;6.30;98.00;;;;;;5052717;28;20452;-72
2024/02/23 06:22:56;;;;;;;3.30;1.30;;;6.10;98.00;;;;;;5052855;28;20453;-71
2024/02/23 06:25:23;;;;;;;1.40;1.20;;;6.00;98.00;;;;;;5052633;28;21015;-72
2024/02/23 06:27:54;;;;;;;1.20;1.10;;;5.90;98.00;;;;;;5052623;28;20453;-71
2024/02/23 06:30:21;;;;;;;3.13;1.17;;;5.80;98.00;;;;;;5052553;28;20497;-71
2024/02/23 06:32:48;;;;;;;1.73;1.20;;;5.80;98.00;;;;;;5052894;28;20461;-71
2024/02/23 06:35:15;;;;;;;1.60;1.10;;;5.80;98.00;;;;;;5052644;28;20947;-71
2024/02/23 06:37:42;;;;;;;3.20;1.20;;;5.80;98.00;;;;;;5052348;28;20464;-71
2024/02/23 06:40:10;;;;;;;2.23;1.20;;;5.80;98.00;;;;;;5052328;28;20459;-71
2024/02/23 06:42:37;;;;;;;1.73;1.30;;;5.90;98.00;;;;;;5052183;28;20515;-71
2024/02/23 06:45:08;;;;;;;1.70;1.30;;;5.90;98.00;;;;;;5034751;28;20450;-71
2024/02/23 06:47:35;;;;;;;2.60;1.80;;;6.10;98.00;;;;;;5052322;28;20461;-72
2024/02/23 06:50:03;;;;;;;1.90;1.37;;;6.10;98.00;;;;;;5052315;28;20488;-72
2024/02/23 06:52:31;;;;;;;5.17;1.60;;;6.00;98.00;;;;;;5052168;28;20512;-73
2024/02/23 06:54:58;;;;;;;5.00;1.90;;;5.90;98.00;;;;;;5052328;28;21000;-73
2024/02/23 06:57:25;;;;;;;1.97;1.40;;;5.80;98.00;;;;;;5051975;28;20453;-73
2024/02/23 06:59:53;;;;;;;2.70;1.40;;;5.80;98.00;;;;;;5036784;28;20455;-78
2024/02/23 07:02:21;;;;;;;1.67;1.40;;;5.90;98.00;;;;;;5034605;28;20452;-78
2024/02/23 07:04:49;;;;;;;1.80;1.40;;;5.90;98.00;;;;;;5051916;28;20455;-79
2024/02/23 07:07:16;;;;;;;1.93;1.40;;;5.90;98.00;;;;;;5052087;28;20464;-78
2024/02/23 07:09:43;;;;;;;2.23;1.23;;;5.90;98.00;;;;;;5052252;28;20871;-78
2024/02/23 07:12:13;;;;;;;1.97;1.33;;;5.90;98.00;;;;;;5052297;28;20463;-78
2024/02/23 07:14:40;;;;;;;1.40;1.20;;;5.90;98.00;;;;;;5052213;28;21194;-78
2024/02/23 07:17:08;;;;;;;1.97;1.30;;;5.80;98.00;;;;;;5051374;28;20460;-78
2024/02/23 07:19:36;;;;;;;1.30;1.30;;;5.90;98.00;;;;;;5051351;28;20490;-77
2024/02/23 07:22:04;;;;;;;1.57;1.20;;;6.00;98.00;;;;;;5051426;28;20824;-77
2024/02/23 07:24:32;;;;;;;2.33;1.43;;;6.00;98.00;;;;;;5034141;28;20448;-77
2024/02/23 07:26:59;;;;;;;1.60;1.40;;;5.90;98.00;;;;;;5051843;28;20461;-77
2024/02/23 07:29:26;;;;;;;3.33;1.40;;;6.00;98.00;;;;;;5033849;28;20467;-78
2024/02/23 07:31:55;;;;;;;3.70;1.50;;;6.00;98.00;;;;;;5051030;28;20457;-77
2024/02/23 07:34:22;;;;;;;3.73;1.40;;;6.00;98.00;;;;;;5051540;28;20452;-78
2024/02/23 07:36:53;;;;;;;2.67;1.50;;;6.00;98.00;;;;;;5033789;28;21000;-77
2024/02/23 07:39:20;;;;;;;1.80;1.50;;;6.00;98.00;;;;;;5051506;28;20480;-79
2024/02/23 07:41:47;;;;;;;3.00;1.60;;;6.10;98.00;;;;;;5033744;28;20461;-79
2024/02/23 07:44:14;;;;;;;20.93;7.70;;;6.20;98.00;;;;;;5051879;28;20462;-77
2024/02/23 07:46:42;;;;;;;12.50;4.90;;;6.30;98.00;;;;;;5051627;28;20447;-76
2024/02/23 07:49:10;;;;;;;6.97;3.63;;;6.40;98.00;;;;;;5051770;28;20452;-79
2024/02/23 07:51:37;;;;;;;11.50;3.57;;;6.50;98.00;;;;;;5033692;28;20477;-77
2024/02/23 07:54:06;;;;;;;2.37;1.80;;;6.70;98.00;;;;;;5051664;28;20455;-77
2024/02/23 07:56:33;;;;;;;2.53;1.60;;;6.70;98.00;;;;;;5051625;28;20455;-78
2024/02/23 07:59:03;;;;;;;2.20;1.30;;;6.90;98.00;;;;;;5051701;28;20460;-77
2024/02/23 08:01:30;;;;;;;1.50;1.50;;;7.00;98.00;;;;;;5051637;28;20452;-78
2024/02/23 08:03:58;;;;;;;1.90;1.40;;;7.00;98.00;;;;;;5051758;28;20491;-77
2024/02/23 08:06:25;;;;;;;2.20;1.20;;;7.10;98.00;;;;;;5033739;28;20446;-79
2024/02/23 08:08:53;;;;;;;2.37;1.60;;;7.20;98.00;;;;;;5033960;28;20476;-79
2024/02/23 08:11:22;;;;;;;2.43;1.70;;;7.20;98.00;;;;;;5050628;28;20582;-79
2024/02/23 08:13:49;;;;;;;2.53;1.63;;;7.20;98.00;;;;;;5051617;28;20967;-77
2024/02/23 08:16:17;;;;;;;4.73;1.60;;;7.30;98.00;;;;;;5033864;28;20499;-78
2024/02/23 08:18:44;;;;;;;1.93;1.50;;;7.30;98.00;;;;;;5051544;28;20970;-77
2024/02/23 08:21:12;;;;;;;2.30;1.60;;;7.30;98.00;;;;;;5051454;28;20450;-79
2024/02/23 08:23:39;;;;;;;2.10;1.40;;;7.30;98.00;;;;;;5049962;28;20514;-77
2024/02/23 08:26:10;;;;;;;1.90;1.50;;;7.30;98.00;;;;;;5050904;28;20796;-77
2024/02/23 08:28:39;;;;;;;2.90;1.47;;;7.20;98.00;;;;;;5053475;28;20458;-78
2024/02/23 08:31:06;;;;;;;1.60;1.30;;;7.20;98.00;;;;;;5054719;28;20511;-76
2024/02/23 08:33:33;;;;;;;2.13;1.50;;;7.30;98.00;;;;;;5055445;28;20464;-73
2024/02/23 08:36:01;;;;;;;1.53;1.40;;;7.30;98.00;;;;;;5055259;28;20947;-75
2024/02/23 08:38:28;;;;;;;2.00;1.30;;;7.50;98.00;;;;;;5055472;28;20455;-80
2024/02/23 08:40:55;;;;;;;2.47;1.70;;;7.50;98.00;;;;;;5037654;28;20464;-79
2024/02/23 08:43:22;;;;;;;14.80;2.07;;;7.50;98.00;;;;;;5055135;28;20449;-80
2024/02/23 08:45:51;;;;;;;2.53;1.67;;;7.60;98.00;;;;;;5037638;28;20453;-76
2024/02/23 08:48:18;;;;;;;4.10;1.63;;;7.60;98.00;;;;;;5055278;28;20445;-76
2024/02/23 08:50:45;;;;;;;3.87;1.70;;;7.70;98.00;;;;;;5054979;28;20477;-77
2024/02/23 08:53:22;;;;;;;2.17;1.60;;;7.70;98.00;;;;;;5055081;28;20454;-77
2024/02/23 08:56:05;;;;;;;4.17;1.60;;;7.70;98.00;;;;;;5055621;28;20504;-78
2024/02/23 08:58:32;;;;;;;2.20;1.50;;;7.80;98.00;;;;;;5055637;28;20443;-78
2024/02/23 09:01:00;;;;;;;5.37;1.87;;;7.60;98.00;;;;;;5054531;28;20507;-76
2024/02/23 09:03:28;;;;;;;1.90;1.73;;;7.60;98.00;;;;;;5054315;28;20460;-76
2024/02/23 09:05:55;;;;;;;1.70;1.30;;;7.60;98.00;;;;;;5036637;28;20456;-79
2024/02/23 09:08:22;;;;;;;1.90;1.60;;;7.40;98.00;;;;;;5054165;28;20469;-77
2024/02/23 09:10:50;;;;;;;2.97;1.63;;;7.50;98.00;;;;;;5036765;28;20879;-77
2024/02/23 09:13:17;;;;;;;3.03;1.50;;;7.50;98.00;;;;;;5053242;28;20461;-79
2024/02/23 09:15:44;;;;;;;2.57;1.60;;;7.60;98.00;;;;;;5053812;28;20485;-76
2024/02/23 09:18:13;;;;;;;2.77;1.50;;;7.50;98.00;;;;;;5053757;28;20452;-78
2024/02/23 09:20:40;;;;;;;1.37;1.30;;;7.50;98.00;;;;;;5054310;28;20481;-77
2024/02/23 09:23:07;;;;;;;1.83;1.37;;;7.60;98.00;;;;;;5019999;28;20457;-76
2024/02/23 09:25:34;;;;;;;2.50;1.47;;;7.70;98.00;;;;;;5053982;28;20494;-76
2024/02/23 09:28:01;;;;;;;1.97;1.40;;;7.70;98.00;;;;;;5036347;28;20538;-76
2024/02/23 09:30:29;;;;;;;3.33;1.30;;;7.70;98.00;;;;;;5053908;28;20500;-71
2024/02/23 09:32:56;;;;;;;2.13;1.20;;;7.70;98.00;;;;;;5053827;28;20459;-71
2024/02/23 09:35:24;;;;;;;1.40;1.30;;;8.30;98.00;;;;;;5053908;28;20502;-70
2024/02/23 09:37:52;;;;;;;1.67;1.50;;;9.40;98.00;;;;;;5035619;28;20460;-79
2024/02/23 09:40:20;;;;;;;2.37;1.60;;;9.90;98.00;;;;;;5053305;28;21157;-79
2024/02/23 09:42:56;;;;;;;5.30;1.77;;;9.80;98.00;;;;;;5054001;28;20451;-77
2024/02/23 09:45:23;;;;;;;2.00;1.47;;;9.70;98.00;;;;;;5053835;28;20504;-77
2024/02/23 09:47:51;;;;;;;3.93;1.40;;;9.50;98.00;;;;;;5053260;28;20450;-78
2024/02/23 09:50:21;;;;;;;1.87;1.40;;;9.20;98.00;;;;;;5052732;28;20453;-78
2024/02/23 09:52:50;;;;;;;1.50;1.33;;;9.10;98.00;;;;;;5053544;28;20458;-77
2024/02/23 09:55:18;;;;;;;3.50;1.60;;;9.20;98.00;;;;;;5053652;28;20463;-79
2024/02/23 09:57:46;;;;;;;1.70;1.43;;;9.20;98.00;;;;;;5053722;28;20635;-80
2024/02/23 10:00:17;;;;;;;2.00;1.47;;;9.30;98.00;;;;;;5035736;28;20451;-77
2024/02/23 10:02:44;;;;;;;1.47;1.37;;;9.20;98.00;;;;;;5053904;28;20476;-79
2024/02/23 10:05:12;;;;;;;3.87;1.37;;;9.20;98.00;;;;;;5056587;28;20557;-78
2024/02/23 10:07:39;;;;;;;4.03;1.87;;;9.10;98.00;;;;;;5054289;28;20490;-77
2024/02/23 10:10:11;;;;;;;1.90;1.40;;;8.90;98.00;;;;;;5055790;28;20512;-76
2024/02/23 10:12:39;;;;;;;2.07;1.47;;;9.00;98.00;;;;;;5064196;28;20492;-77
2024/02/23 10:15:07;;;;;;;3.27;1.60;;;9.00;98.00;;;;;;5059983;28;20853;-78
2024/02/23 10:17:34;;;;;;;4.17;1.63;;;9.10;98.00;;;;;;5058262;28;20464;-79
2024/02/23 10:20:04;;;;;;;2.03;1.40;;;9.20;98.00;;;;;;5056133;28;20806;-77
2024/02/23 10:22:32;;;;;;;3.00;1.70;;;9.40;98.00;;;;;;5056084;28;20450;-79
2024/02/23 10:24:59;;;;;;;1.67;1.40;;;9.50;98.00;;;;;;5057058;28;20460;-80
2024/02/23 10:27:28;;;;;;;4.80;2.33;;;9.50;98.00;;;;;;5057185;28;20458;-80
2024/02/23 10:29:55;;;;;;;2.80;1.43;;;9.40;98.00;;;;;;5060402;28;20790;-79
2024/02/23 10:32:23;;;;;;;1.70;1.40;;;9.40;98.00;;;;;;5057616;28;20999;-79
2024/02/23 10:34:51;;;;;;;3.73;1.50;;;9.40;98.00;;;;;;5057056;28;20859;-80
2024/02/23 10:37:18;;;;;;;2.50;1.30;;;9.40;98.00;;;;;;5038233;28;20494;-78
2024/02/23 10:39:48;;;;;;;4.57;1.63;;;9.00;98.00;;;;;;5057376;28;20457;-77
2024/02/23 10:44:45;;;;;;;2.63;1.40;;;9.00;98.00;;;;;;5001892;28;20480;-76
2024/02/23 10:47:13;;;;;;;1.50;1.30;;;8.80;98.00;;;;;;4979333;28;20545;-77
2024/02/23 10:49:41;;;;;;;2.50;1.40;;;9.00;98.00;;;;;;4996178;28;20496;-78
2024/02/23 10:52:12;;;;;;;1.93;1.50;;;9.10;98.00;;;;;;4980013;28;21091;-76
2024/02/23 10:54:40;;;;;;;1.40;1.30;;;9.10;98.00;;;;;;4996381;28;20567;-77
2024/02/23 10:57:08;;;;;;;3.63;1.23;;;9.10;98.00;;;;;;4995600;28;20448;-81
2024/02/23 10:59:36;;;;;;;4.07;1.70;;;9.10;98.00;;;;;;4996488;28;20499;-78
2024/02/23 11:02:06;;;;;;;3.10;1.63;;;9.10;98.00;;;;;;4979102;28;20453;-78
2024/02/23 11:04:35;;;;;;;1.73;1.50;;;9.20;98.00;;;;;;4995348;28;20468;-79
2024/02/23 11:07:07;;;;;;;1.77;1.57;;;9.20;98.00;;;;;;4996657;28;20940;-80
2024/02/23 11:09:34;;;;;;;2.60;1.57;;;9.30;98.00;;;;;;4996425;28;21029;-77
2024/02/23 11:12:06;;;;;;;1.70;1.33;;;9.40;98.00;;;;;;4996845;28;20511;-78
2024/02/23 11:14:33;;;;;;;4.00;1.60;;;9.40;98.00;;;;;;4978958;28;20507;-77
2024/02/23 11:17:01;;;;;;;3.50;1.50;;;9.40;98.00;;;;;;4995505;28;20462;-78
2024/02/23 11:19:40;;;;;;;2.57;1.40;;;9.50;98.00;;;;;;4993650;28;20497;-78
2024/02/23 11:22:11;;;;;;;2.83;1.50;;;9.50;98.00;;;;;;4992841;28;20518;-77
2024/02/23 11:24:43;;;;;;;4.17;1.37;;;9.40;98.00;;;;;;4975162;28;20460;-75
2024/02/23 11:27:17;;;;;;;2.07;1.37;;;9.20;98.00;;;;;;4992422;28;20469;-78
2024/02/23 11:29:46;;;;;;;2.13;1.20;;;9.30;98.00;;;;;;4992939;28;20942;-76
2024/02/23 11:32:15;;;;;;;2.53;1.23;;;9.40;98.00;;;;;;4992561;28;20559;-76
2024/02/23 11:34:54;;;;;;;1.87;1.20;;;9.40;98.00;;;;;;4993439;28;20561;-75
2024/02/23 11:37:21;;;;;;;1.80;1.40;;;9.50;98.00;;;;;;4992525;28;20456;-76
2024/02/23 11:39:50;;;;;;;4.30;1.50;;;9.60;98.00;;;;;;4975264;28;20464;-76
2024/02/23 11:42:18;;;;;;;2.43;1.50;;;9.50;98.00;;;;;;4992093;28;20454;-77
2024/02/23 11:44:45;;;;;;;1.30;1.20;;;9.60;98.00;;;;;;4992528;28;20460;-75
2024/02/23 11:47:13;;;;;;;2.60;1.20;;;9.60;98.00;;;;;;4974749;28;20456;-74
2024/02/23 11:49:40;;;;;;;3.20;1.40;;;9.70;98.00;;;;;;4992549;28;20461;-76
2024/02/23 11:52:09;;;;;;;4.77;1.40;;;9.70;98.00;;;;;;4992261;28;21006;-76
2024/02/23 11:54:39;;;;;;;2.70;1.40;;;9.70;98.00;;;;;;4992269;28;20456;-77
2024/02/23 11:57:08;;;;;;;2.20;1.50;;;9.60;98.00;;;;;;4992274;28;20454;-77
2024/02/23 11:59:35;;;;;;;2.03;1.50;;;9.70;98.00;;;;;;4992493;28;20439;-77
2024/02/23 12:02:02;;;;;;;1.93;1.23;;;9.60;98.00;;;;;;4993629;28;20845;-76
2024/02/23 12:04:31;;;;;;;12.00;1.70;;;9.60;98.00;;;;;;4996375;28;20936;-77
2024/02/23 12:06:59;;;;;;;1.73;1.30;;;9.60;98.00;;;;;;4996352;28;20864;-75
2024/02/23 12:09:28;;;;;;;3.50;1.40;;;9.60;98.00;;;;;;4996266;28;20822;-75
2024/02/23 12:11:55;;;;;;;2.77;1.50;;;9.60;98.00;;;;;;4996323;28;20846;-75
2024/02/23 12:14:22;;;;;;;1.33;1.13;;;9.80;98.00;;;;;;4978964;28;20457;-77
2024/02/23 12:16:49;;;;;;;2.80;1.47;;;9.80;98.00;;;;;;4996115;28;20452;-76
2024/02/23 12:19:16;;;;;;;1.47;1.27;;;9.80;98.00;;;;;;4996164;28;20976;-76
2024/02/23 12:21:46;;;;;;;1.80;1.40;;;9.90;98.00;;;;;;4996156;28;20459;-75
2024/02/23 12:24:14;;;;;;;2.07;1.40;;;9.80;98.00;;;;;;4996181;28;20457;-74
2024/02/23 12:26:42;;;;;;;1.67;1.33;;;9.90;98.00;;;;;;4996177;28;20466;-75
2024/02/23 12:29:11;;;;;;;3.53;1.70;;;9.90;98.00;;;;;;4996040;28;20446;-74
2024/02/23 12:31:38;;;;;;;4.33;1.50;;;9.80;98.00;;;;;;4996200;28;20484;-74
2024/02/23 12:34:08;;;;;;;5.67;1.80;;;9.90;98.00;;;;;;4996243;28;20451;-77
2024/02/23 12:36:37;;;;;;;1.90;1.47;;;10.00;98.00;;;;;;4996288;28;20467;-76
2024/02/23 12:39:05;;;;;;;1.63;1.33;;;10.10;98.00;;;;;;4996199;28;20455;-76
2024/02/23 12:41:32;;;;;;;1.87;1.37;;;10.10;98.00;;;;;;4996115;28;20486;-70
2024/02/23 12:44:01;;;;;;;2.17;1.33;;;10.20;98.00;;;;;;4978523;28;20482;-77
2024/02/23 12:46:28;;;;;;;2.60;1.43;;;10.90;98.00;;;;;;4995452;28;20970;-77
2024/02/23 12:48:55;;;;;;;4.07;1.40;;;10.90;98.00;;;;;;4995798;28;20532;-78
2024/02/23 12:51:27;;;;;;;2.70;1.50;;;10.80;98.00;;;;;;4995994;28;20484;-75
2024/02/23 12:53:54;;;;;;;2.47;1.30;;;10.70;98.00;;;;;;4995302;28;20463;-76
2024/02/23 12:56:22;;;;;;;5.40;1.80;;;10.70;98.00;;;;;;4995435;28;20486;-75
2024/02/23 12:58:49;;;;;;;1.83;1.47;;;10.80;98.00;;;;;;4995529;28;20466;-77
2024/02/23 13:01:18;;;;;;;2.17;1.50;;;11.00;98.00;;;;;;4995558;28;20461;-76